sensor_id;sensor_type;location;lat;lon;timestamp;P1;durP1;ratioP1;P2;durP2;ratioP2
75787;SDS011;64406;50.024;14.492;2023-04-15T00:00:49;3.42;;;3.10;;
75787;SDS011;64406;50.024;14.492;2023-04-15T00:03:16;3.78;;;2.85;;
75787;SDS011;64406;50.024;14.492;2023-04-15T00:05:41;4.07;;;3.00;;
75787;SDS011;64406;50.024;14.492;2023-04-15T00:08:07;3.38;;;3.08;;
75787;SDS011;64406;50.024;14.492;2023-04-15T00:10:33;2.60;;;2.40;;
75787;SDS011;64406;50.024;14.492;2023-04-15T00:12:58;3.08;;;2.67;;
75787;SDS011;64406;50.024;14.492;2023-04-15T00:15:24;3.90;;;2.60;;
75787;SDS011;64406;50.024;14.492;2023-04-15T00:17:50;3.33;;;2.08;;
75787;SDS011;64406;50.024;14.492;2023-04-15T00:20:16;2.70;;;2.50;;
75787;SDS011;64406;50.024;14.492;2023-04-15T00:22:42;2.78;;;2.00;;
75787;SDS011;64406;50.024;14.492;2023-04-15T00:25:07;3.58;;;2.58;;
75787;SDS011;64406;50.024;14.492;2023-04-15T00:27:33;3.80;;;3.38;;
75787;SDS011;64406;50.024;14.492;2023-04-15T00:29:59;4.03;;;3.13;;
75787;SDS011;64406;50.024;14.492;2023-04-15T00:32:25;3.92;;;2.72;;
75787;SDS011;64406;50.024;14.492;2023-04-15T00:34:50;4.25;;;2.55;;
75787;SDS011;64406;50.024;14.492;2023-04-15T00:37:16;3.35;;;3.05;;
75787;SDS011;64406;50.024;14.492;2023-04-15T00:39:42;4.05;;;2.92;;
75787;SDS011;64406;50.024;14.492;2023-04-15T00:42:08;2.58;;;2.38;;
75787;SDS011;64406;50.024;14.492;2023-04-15T00:44:34;3.25;;;2.20;;
75787;SDS011;64406;50.024;14.492;2023-04-15T00:47:00;2.53;;;2.22;;
75787;SDS011;64406;50.024;14.492;2023-04-15T00:49:29;2.75;;;2.25;;
75787;SDS011;64406;50.024;14.492;2023-04-15T00:51:54;2.22;;;1.73;;
75787;SDS011;64406;50.024;14.492;2023-04-15T00:54:20;3.10;;;1.90;;
75787;SDS011;64406;50.024;14.492;2023-04-15T00:56:46;2.00;;;1.50;;
75787;SDS011;64406;50.024;14.492;2023-04-15T00:59:12;2.28;;;1.80;;
75787;SDS011;64406;50.024;14.492;2023-04-15T01:01:38;6.57;;;2.17;;
75787;SDS011;64406;50.024;14.492;2023-04-15T01:04:05;2.28;;;1.80;;
75787;SDS011;64406;50.024;14.492;2023-04-15T01:06:31;4.63;;;2.03;;
75787;SDS011;64406;50.024;14.492;2023-04-15T01:08:57;2.50;;;1.80;;
75787;SDS011;64406;50.024;14.492;2023-04-15T01:11:23;1.75;;;1.52;;
75787;SDS011;64406;50.024;14.492;2023-04-15T01:13:49;3.33;;;1.58;;
75787;SDS011;64406;50.024;14.492;2023-04-15T01:16:17;1.75;;;1.45;;
75787;SDS011;64406;50.024;14.492;2023-04-15T01:18:43;1.50;;;1.20;;
75787;SDS011;64406;50.024;14.492;2023-04-15T01:21:09;2.42;;;1.70;;
75787;SDS011;64406;50.024;14.492;2023-04-15T01:23:35;1.80;;;1.30;;
75787;SDS011;64406;50.024;14.492;2023-04-15T01:26:07;2.30;;;1.60;;
75787;SDS011;64406;50.024;14.492;2023-04-15T01:28:36;1.50;;;1.40;;
75787;SDS011;64406;50.024;14.492;2023-04-15T01:31:09;2.05;;;1.45;;
75787;SDS011;64406;50.024;14.492;2023-04-15T01:33:37;1.90;;;1.40;;
75787;SDS011;64406;50.024;14.492;2023-04-15T01:36:03;1.45;;;1.25;;
75787;SDS011;64406;50.024;14.492;2023-04-15T01:38:30;1.60;;;1.17;;
75787;SDS011;64406;50.024;14.492;2023-04-15T01:40:56;1.73;;;1.48;;
75787;SDS011;64406;50.024;14.492;2023-04-15T01:43:22;1.17;;;1.00;;
75787;SDS011;64406;50.024;14.492;2023-04-15T01:45:48;1.08;;;0.90;;
75787;SDS011;64406;50.024;14.492;2023-04-15T01:48:13;1.00;;;0.90;;
75787;SDS011;64406;50.024;14.492;2023-04-15T01:50:39;2.80;;;1.15;;
75787;SDS011;64406;50.024;14.492;2023-04-15T01:53:05;2.25;;;1.17;;
75787;SDS011;64406;50.024;14.492;2023-04-15T01:55:30;1.33;;;0.90;;
75787;SDS011;64406;50.024;14.492;2023-04-15T01:57:56;2.28;;;1.20;;
75787;SDS011;64406;50.024;14.492;2023-04-15T02:00:22;1.33;;;1.02;;
75787;SDS011;64406;50.024;14.492;2023-04-15T02:02:48;1.52;;;1.00;;
75787;SDS011;64406;50.024;14.492;2023-04-15T02:05:13;1.63;;;1.13;;
75787;SDS011;64406;50.024;14.492;2023-04-15T02:07:41;1.58;;;1.00;;
75787;SDS011;64406;50.024;14.492;2023-04-15T02:10:07;1.00;;;0.82;;
75787;SDS011;64406;50.024;14.492;2023-04-15T02:12:34;1.60;;;1.00;;
75787;SDS011;64406;50.024;14.492;2023-04-15T02:15:00;1.20;;;1.08;;
75787;SDS011;64406;50.024;14.492;2023-04-15T02:17:26;0.95;;;0.82;;
75787;SDS011;64406;50.024;14.492;2023-04-15T02:19:52;1.45;;;0.98;;
75787;SDS011;64406;50.024;14.492;2023-04-15T02:22:17;1.20;;;1.05;;
75787;SDS011;64406;50.024;14.492;2023-04-15T02:24:43;2.95;;;1.10;;
75787;SDS011;64406;50.024;14.492;2023-04-15T02:27:13;1.42;;;1.20;;
75787;SDS011;64406;50.024;14.492;2023-04-15T02:29:40;1.45;;;0.98;;
75787;SDS011;64406;50.024;14.492;2023-04-15T02:32:06;1.40;;;1.00;;
75787;SDS011;64406;50.024;14.492;2023-04-15T02:34:32;2.63;;;1.33;;
75787;SDS011;64406;50.024;14.492;2023-04-15T02:36:58;1.63;;;1.30;;
75787;SDS011;64406;50.024;14.492;2023-04-15T02:39:23;1.55;;;1.23;;
75787;SDS011;64406;50.024;14.492;2023-04-15T02:41:49;1.52;;;1.02;;
75787;SDS011;64406;50.024;14.492;2023-04-15T02:44:17;1.30;;;1.20;;
75787;SDS011;64406;50.024;14.492;2023-04-15T02:46:45;1.98;;;1.30;;
75787;SDS011;64406;50.024;14.492;2023-04-15T02:49:16;1.95;;;1.10;;
75787;SDS011;64406;50.024;14.492;2023-04-15T02:51:42;1.60;;;1.17;;
75787;SDS011;64406;50.024;14.492;2023-04-15T02:54:11;1.45;;;1.00;;
75787;SDS011;64406;50.024;14.492;2023-04-15T02:56:37;1.85;;;1.30;;
75787;SDS011;64406;50.024;14.492;2023-04-15T02:59:03;1.60;;;1.50;;
75787;SDS011;64406;50.024;14.492;2023-04-15T03:01:29;1.40;;;1.20;;
75787;SDS011;64406;50.024;14.492;2023-04-15T03:03:54;1.30;;;1.20;;
75787;SDS011;64406;50.024;14.492;2023-04-15T03:06:20;1.30;;;1.13;;
75787;SDS011;64406;50.024;14.492;2023-04-15T03:08:45;1.48;;;1.17;;
75787;SDS011;64406;50.024;14.492;2023-04-15T03:11:11;1.33;;;1.20;;
75787;SDS011;64406;50.024;14.492;2023-04-15T03:13:38;1.30;;;1.17;;
75787;SDS011;64406;50.024;14.492;2023-04-15T03:16:06;2.35;;;1.60;;
75787;SDS011;64406;50.024;14.492;2023-04-15T03:18:31;2.05;;;1.20;;
75787;SDS011;64406;50.024;14.492;2023-04-15T03:20:57;1.63;;;1.52;;
75787;SDS011;64406;50.024;14.492;2023-04-15T03:23:22;1.52;;;1.42;;
75787;SDS011;64406;50.024;14.492;2023-04-15T03:25:48;1.65;;;1.55;;
75787;SDS011;64406;50.024;14.492;2023-04-15T03:28:14;2.00;;;1.80;;
75787;SDS011;64406;50.024;14.492;2023-04-15T03:30:40;1.63;;;1.40;;
75787;SDS011;64406;50.024;14.492;2023-04-15T03:33:05;1.50;;;1.40;;
75787;SDS011;64406;50.024;14.492;2023-04-15T03:35:31;2.75;;;1.60;;
75787;SDS011;64406;50.024;14.492;2023-04-15T03:37:57;1.85;;;1.70;;
75787;SDS011;64406;50.024;14.492;2023-04-15T03:40:22;2.53;;;2.33;;
75787;SDS011;64406;50.024;14.492;2023-04-15T03:42:48;2.30;;;2.10;;
75787;SDS011;64406;50.024;14.492;2023-04-15T03:45:13;2.60;;;2.03;;
75787;SDS011;64406;50.024;14.492;2023-04-15T03:47:39;2.40;;;2.20;;
75787;SDS011;64406;50.024;14.492;2023-04-15T03:50:05;3.15;;;2.80;;
75787;SDS011;64406;50.024;14.492;2023-04-15T03:52:31;3.63;;;2.67;;
75787;SDS011;64406;50.024;14.492;2023-04-15T03:54:57;3.35;;;3.00;;
75787;SDS011;64406;50.024;14.492;2023-04-15T03:57:22;3.88;;;3.33;;
75787;SDS011;64406;50.024;14.492;2023-04-15T03:59:48;6.35;;;3.90;;
75787;SDS011;64406;50.024;14.492;2023-04-15T04:02:13;7.28;;;5.18;;
75787;SDS011;64406;50.024;14.492;2023-04-15T04:04:39;7.80;;;5.03;;
75787;SDS011;64406;50.024;14.492;2023-04-15T04:07:05;7.15;;;5.00;;
75787;SDS011;64406;50.024;14.492;2023-04-15T04:09:31;6.07;;;4.03;;
75787;SDS011;64406;50.024;14.492;2023-04-15T04:11:56;6.15;;;4.05;;
75787;SDS011;64406;50.024;14.492;2023-04-15T04:14:22;8.50;;;4.68;;
75787;SDS011;64406;50.024;14.492;2023-04-15T04:16:53;4.63;;;3.60;;
75787;SDS011;64406;50.024;14.492;2023-04-15T04:19:19;4.93;;;3.67;;
75787;SDS011;64406;50.024;14.492;2023-04-15T04:21:45;5.32;;;3.05;;
75787;SDS011;64406;50.024;14.492;2023-04-15T04:24:11;4.10;;;3.10;;
75787;SDS011;64406;50.024;14.492;2023-04-15T04:26:36;4.47;;;3.25;;
75787;SDS011;64406;50.024;14.492;2023-04-15T04:29:02;4.30;;;3.28;;
75787;SDS011;64406;50.024;14.492;2023-04-15T04:31:28;3.75;;;2.97;;
75787;SDS011;64406;50.024;14.492;2023-04-15T04:33:53;3.88;;;3.15;;
75787;SDS011;64406;50.024;14.492;2023-04-15T04:36:19;4.53;;;3.03;;
75787;SDS011;64406;50.024;14.492;2023-04-15T04:38:45;4.95;;;3.05;;
75787;SDS011;64406;50.024;14.492;2023-04-15T04:41:10;3.05;;;2.40;;
75787;SDS011;64406;50.024;14.492;2023-04-15T04:43:36;4.72;;;2.83;;
75787;SDS011;64406;50.024;14.492;2023-04-15T04:46:01;3.10;;;2.80;;
75787;SDS011;64406;50.024;14.492;2023-04-15T04:48:27;4.53;;;2.90;;
75787;SDS011;64406;50.024;14.492;2023-04-15T04:50:53;3.20;;;2.70;;
75787;SDS011;64406;50.024;14.492;2023-04-15T04:53:18;3.80;;;2.90;;
75787;SDS011;64406;50.024;14.492;2023-04-15T04:55:44;3.85;;;2.60;;
75787;SDS011;64406;50.024;14.492;2023-04-15T04:58:10;4.05;;;3.10;;
75787;SDS011;64406;50.024;14.492;2023-04-15T05:00:36;4.18;;;3.13;;
75787;SDS011;64406;50.024;14.492;2023-04-15T05:03:02;4.45;;;3.47;;
75787;SDS011;64406;50.024;14.492;2023-04-15T05:05:28;4.15;;;3.42;;
75787;SDS011;64406;50.024;14.492;2023-04-15T05:07:54;4.43;;;3.50;;
75787;SDS011;64406;50.024;14.492;2023-04-15T05:10:20;4.80;;;3.25;;
75787;SDS011;64406;50.024;14.492;2023-04-15T05:12:45;5.55;;;3.63;;
75787;SDS011;64406;50.024;14.492;2023-04-15T05:15:11;5.03;;;3.10;;
75787;SDS011;64406;50.024;14.492;2023-04-15T05:17:39;5.72;;;3.58;;
75787;SDS011;64406;50.024;14.492;2023-04-15T05:20:05;5.32;;;3.08;;
75787;SDS011;64406;50.024;14.492;2023-04-15T05:22:31;3.40;;;3.08;;
75787;SDS011;64406;50.024;14.492;2023-04-15T05:24:57;4.13;;;3.35;;
75787;SDS011;64406;50.024;14.492;2023-04-15T05:27:22;3.55;;;3.10;;
75787;SDS011;64406;50.024;14.492;2023-04-15T05:29:49;4.18;;;3.03;;
75787;SDS011;64406;50.024;14.492;2023-04-15T05:32:14;4.90;;;2.60;;
75787;SDS011;64406;50.024;14.492;2023-04-15T05:34:40;4.20;;;3.28;;
75787;SDS011;64406;50.024;14.492;2023-04-15T05:37:06;4.07;;;3.15;;
75787;SDS011;64406;50.024;14.492;2023-04-15T05:39:32;5.80;;;3.30;;
75787;SDS011;64406;50.024;14.492;2023-04-15T05:41:58;4.45;;;3.17;;
75787;SDS011;64406;50.024;14.492;2023-04-15T05:44:24;6.20;;;3.60;;
75787;SDS011;64406;50.024;14.492;2023-04-15T05:46:50;3.13;;;2.83;;
75787;SDS011;64406;50.024;14.492;2023-04-15T05:49:15;3.78;;;2.80;;
75787;SDS011;64406;50.024;14.492;2023-04-15T05:51:41;3.15;;;2.42;;
75787;SDS011;64406;50.024;14.492;2023-04-15T05:54:06;3.92;;;2.70;;
75787;SDS011;64406;50.024;14.492;2023-04-15T05:56:32;3.05;;;2.50;;
75787;SDS011;64406;50.024;14.492;2023-04-15T05:58:58;3.47;;;2.63;;
75787;SDS011;64406;50.024;14.492;2023-04-15T06:01:23;4.57;;;3.08;;
75787;SDS011;64406;50.024;14.492;2023-04-15T06:03:49;2.75;;;2.35;;
75787;SDS011;64406;50.024;14.492;2023-04-15T06:06:15;4.57;;;2.97;;
75787;SDS011;64406;50.024;14.492;2023-04-15T06:08:41;2.45;;;2.22;;
75787;SDS011;64406;50.024;14.492;2023-04-15T06:11:06;2.63;;;2.42;;
75787;SDS011;64406;50.024;14.492;2023-04-15T06:13:32;2.17;;;1.98;;
75787;SDS011;64406;50.024;14.492;2023-04-15T06:15:59;2.92;;;2.28;;
75787;SDS011;64406;50.024;14.492;2023-04-15T06:18:24;3.15;;;2.60;;
75787;SDS011;64406;50.024;14.492;2023-04-15T06:20:50;3.88;;;2.22;;
75787;SDS011;64406;50.024;14.492;2023-04-15T06:23:16;1.73;;;1.63;;
75787;SDS011;64406;50.024;14.492;2023-04-15T06:25:41;2.53;;;2.10;;
75787;SDS011;64406;50.024;14.492;2023-04-15T06:28:07;2.28;;;2.08;;
75787;SDS011;64406;50.024;14.492;2023-04-15T06:30:33;2.80;;;1.85;;
75787;SDS011;64406;50.024;14.492;2023-04-15T06:33:00;2.25;;;2.05;;
75787;SDS011;64406;50.024;14.492;2023-04-15T06:35:27;2.97;;;2.03;;
75787;SDS011;64406;50.024;14.492;2023-04-15T06:37:53;2.80;;;2.50;;
75787;SDS011;64406;50.024;14.492;2023-04-15T06:40:18;2.40;;;1.90;;
75787;SDS011;64406;50.024;14.492;2023-04-15T06:42:44;3.03;;;2.08;;
75787;SDS011;64406;50.024;14.492;2023-04-15T06:45:10;1.92;;;1.50;;
75787;SDS011;64406;50.024;14.492;2023-04-15T06:47:36;1.33;;;1.23;;
75787;SDS011;64406;50.024;14.492;2023-04-15T06:50:01;1.42;;;1.30;;
75787;SDS011;64406;50.024;14.492;2023-04-15T06:52:28;1.08;;;0.73;;
75787;SDS011;64406;50.024;14.492;2023-04-15T06:54:54;0.93;;;0.63;;
75787;SDS011;64406;50.024;14.492;2023-04-15T06:57:20;0.63;;;0.63;;
75787;SDS011;64406;50.024;14.492;2023-04-15T06:59:45;0.55;;;0.55;;
75787;SDS011;64406;50.024;14.492;2023-04-15T07:02:12;0.80;;;0.73;;
75787;SDS011;64406;50.024;14.492;2023-04-15T07:04:38;0.98;;;0.52;;
75787;SDS011;64406;50.024;14.492;2023-04-15T07:07:04;0.50;;;0.50;;
75787;SDS011;64406;50.024;14.492;2023-04-15T07:09:30;0.85;;;0.50;;
75787;SDS011;64406;50.024;14.492;2023-04-15T07:11:56;0.80;;;0.40;;
75787;SDS011;64406;50.024;14.492;2023-04-15T07:14:22;0.40;;;0.40;;
75787;SDS011;64406;50.024;14.492;2023-04-15T07:16:48;0.38;;;0.35;;
75787;SDS011;64406;50.024;14.492;2023-04-15T07:19:13;0.40;;;0.40;;
75787;SDS011;64406;50.024;14.492;2023-04-15T07:21:39;0.35;;;0.35;;
75787;SDS011;64406;50.024;14.492;2023-04-15T07:24:04;0.22;;;0.22;;
75787;SDS011;64406;50.024;14.492;2023-04-15T07:26:31;0.73;;;0.50;;
75787;SDS011;64406;50.024;14.492;2023-04-15T07:28:56;0.40;;;0.40;;
75787;SDS011;64406;50.024;14.492;2023-04-15T07:31:22;0.50;;;0.50;;
75787;SDS011;64406;50.024;14.492;2023-04-15T07:33:47;0.50;;;0.50;;
75787;SDS011;64406;50.024;14.492;2023-04-15T07:36:13;0.40;;;0.40;;
75787;SDS011;64406;50.024;14.492;2023-04-15T07:38:40;0.73;;;0.73;;
75787;SDS011;64406;50.024;14.492;2023-04-15T07:41:06;0.70;;;0.60;;
75787;SDS011;64406;50.024;14.492;2023-04-15T07:43:32;0.70;;;0.60;;
75787;SDS011;64406;50.024;14.492;2023-04-15T07:45:58;0.50;;;0.50;;
75787;SDS011;64406;50.024;14.492;2023-04-15T07:51:59;1.02;;;0.80;;
75787;SDS011;64406;50.024;14.492;2023-04-15T07:54:25;0.82;;;0.65;;
75787;SDS011;64406;50.024;14.492;2023-04-15T07:56:51;0.93;;;0.80;;
75787;SDS011;64406;50.024;14.492;2023-04-15T07:59:17;0.50;;;0.50;;
75787;SDS011;64406;50.024;14.492;2023-04-15T08:01:43;0.60;;;0.60;;
75787;SDS011;64406;50.024;14.492;2023-04-15T08:04:09;0.80;;;0.80;;
75787;SDS011;64406;50.024;14.492;2023-04-15T08:06:34;0.82;;;0.60;;
75787;SDS011;64406;50.024;14.492;2023-04-15T08:09:01;0.60;;;0.60;;
75787;SDS011;64406;50.024;14.492;2023-04-15T08:11:26;0.65;;;0.65;;
75787;SDS011;64406;50.024;14.492;2023-04-15T08:13:52;1.75;;;0.80;;
75787;SDS011;64406;50.024;14.492;2023-04-15T08:16:19;1.08;;;0.88;;
75787;SDS011;64406;50.024;14.492;2023-04-15T08:18:46;0.93;;;0.82;;
75787;SDS011;64406;50.024;14.492;2023-04-15T08:21:13;1.00;;;0.80;;
75787;SDS011;64406;50.024;14.492;2023-04-15T08:23:39;1.02;;;0.90;;
75787;SDS011;64406;50.024;14.492;2023-04-15T08:26:05;0.98;;;0.93;;
75787;SDS011;64406;50.024;14.492;2023-04-15T08:28:31;1.00;;;0.90;;
75787;SDS011;64406;50.024;14.492;2023-04-15T08:30:57;1.73;;;1.00;;
75787;SDS011;64406;50.024;14.492;2023-04-15T08:33:22;1.23;;;0.80;;
75787;SDS011;64406;50.024;14.492;2023-04-15T08:35:48;1.52;;;1.15;;
75787;SDS011;64406;50.024;14.492;2023-04-15T08:38:14;0.82;;;0.82;;
75787;SDS011;64406;50.024;14.492;2023-04-15T08:40:40;1.10;;;0.90;;
75787;SDS011;64406;50.024;14.492;2023-04-15T08:43:09;1.30;;;1.13;;
75787;SDS011;64406;50.024;14.492;2023-04-15T08:45:39;3.40;;;1.35;;
75787;SDS011;64406;50.024;14.492;2023-04-15T08:48:05;1.42;;;1.17;;
75787;SDS011;64406;50.024;14.492;2023-04-15T08:50:34;2.00;;;1.25;;
75787;SDS011;64406;50.024;14.492;2023-04-15T08:52:59;1.27;;;1.15;;
75787;SDS011;64406;50.024;14.492;2023-04-15T08:55:27;1.02;;;0.90;;
75787;SDS011;64406;50.024;14.492;2023-04-15T08:57:57;1.00;;;1.00;;
75787;SDS011;64406;50.024;14.492;2023-04-15T09:00:24;0.85;;;0.70;;
75787;SDS011;64406;50.024;14.492;2023-04-15T09:02:51;1.48;;;0.90;;
75787;SDS011;64406;50.024;14.492;2023-04-15T09:05:16;1.05;;;0.95;;
75787;SDS011;64406;50.024;14.492;2023-04-15T09:07:42;1.10;;;1.00;;
75787;SDS011;64406;50.024;14.492;2023-04-15T09:10:08;0.80;;;0.80;;
75787;SDS011;64406;50.024;14.492;2023-04-15T09:12:34;0.80;;;0.80;;
75787;SDS011;64406;50.024;14.492;2023-04-15T09:15:01;1.00;;;0.90;;
75787;SDS011;64406;50.024;14.492;2023-04-15T09:17:28;0.75;;;0.75;;
75787;SDS011;64406;50.024;14.492;2023-04-15T09:20:10;0.88;;;0.80;;
75787;SDS011;64406;50.024;14.492;2023-04-15T09:22:38;1.10;;;1.00;;
75787;SDS011;64406;50.024;14.492;2023-04-15T09:27:52;1.80;;;1.00;;
75787;SDS011;64406;50.024;14.492;2023-04-15T09:30:19;1.50;;;1.33;;
75787;SDS011;64406;50.024;14.492;2023-04-15T09:32:51;1.48;;;1.10;;
75787;SDS011;64406;50.024;14.492;2023-04-15T09:35:22;1.50;;;1.40;;
75787;SDS011;64406;50.024;14.492;2023-04-15T09:37:48;2.67;;;1.90;;
75787;SDS011;64406;50.024;14.492;2023-04-15T09:40:29;1.45;;;1.30;;
75787;SDS011;64406;50.024;14.492;2023-04-15T09:43:05;3.22;;;1.85;;
75787;SDS011;64406;50.024;14.492;2023-04-15T09:45:33;2.75;;;1.92;;
75787;SDS011;64406;50.024;14.492;2023-04-15T09:48:16;1.90;;;1.70;;
75787;SDS011;64406;50.024;14.492;2023-04-15T09:50:42;3.17;;;2.00;;
75787;SDS011;64406;50.024;14.492;2023-04-15T09:53:11;2.35;;;1.60;;
75787;SDS011;64406;50.024;14.492;2023-04-15T09:55:45;2.15;;;1.88;;
75787;SDS011;64406;50.024;14.492;2023-04-15T09:58:18;2.60;;;1.77;;
75787;SDS011;64406;50.024;14.492;2023-04-15T10:01:11;2.00;;;1.88;;
75787;SDS011;64406;50.024;14.492;2023-04-15T10:03:36;2.10;;;1.70;;
75787;SDS011;64406;50.024;14.492;2023-04-15T10:06:06;2.17;;;1.85;;
75787;SDS011;64406;50.024;14.492;2023-04-15T10:08:33;2.67;;;1.80;;
75787;SDS011;64406;50.024;14.492;2023-04-15T10:11:02;2.42;;;1.90;;
75787;SDS011;64406;50.024;14.492;2023-04-15T10:13:29;2.45;;;1.98;;
75787;SDS011;64406;50.024;14.492;2023-04-15T10:16:05;3.17;;;2.30;;
75787;SDS011;64406;50.024;14.492;2023-04-15T10:18:37;3.33;;;2.05;;
75787;SDS011;64406;50.024;14.492;2023-04-15T10:21:07;1.92;;;1.45;;
75787;SDS011;64406;50.024;14.492;2023-04-15T10:23:33;2.13;;;1.67;;
75787;SDS011;64406;50.024;14.492;2023-04-15T10:26:00;3.17;;;1.88;;
75787;SDS011;64406;50.024;14.492;2023-04-15T10:28:28;1.40;;;1.30;;
75787;SDS011;64406;50.024;14.492;2023-04-15T10:30:54;2.10;;;1.48;;
75787;SDS011;64406;50.024;14.492;2023-04-15T10:33:22;1.60;;;1.40;;
75787;SDS011;64406;50.024;14.492;2023-04-15T10:35:49;2.72;;;1.40;;
75787;SDS011;64406;50.024;14.492;2023-04-15T10:38:32;2.70;;;1.75;;
75787;SDS011;64406;50.024;14.492;2023-04-15T10:43:52;2.25;;;1.75;;
75787;SDS011;64406;50.024;14.492;2023-04-15T10:46:37;1.80;;;1.70;;
75787;SDS011;64406;50.024;14.492;2023-04-15T10:49:10;1.77;;;1.35;;
75787;SDS011;64406;50.024;14.492;2023-04-15T10:51:39;1.80;;;1.67;;
75787;SDS011;64406;50.024;14.492;2023-04-15T10:59:31;3.50;;;2.10;;
75787;SDS011;64406;50.024;14.492;2023-04-15T11:02:02;3.03;;;1.65;;
75787;SDS011;64406;50.024;14.492;2023-04-15T11:04:50;3.25;;;1.83;;
75787;SDS011;64406;50.024;14.492;2023-04-15T11:08:51;3.20;;;1.65;;
75787;SDS011;64406;50.024;14.492;2023-04-15T11:12:55;2.58;;;1.90;;
75787;SDS011;64406;50.024;14.492;2023-04-15T11:15:26;2.50;;;1.70;;
75787;SDS011;64406;50.024;14.492;2023-04-15T11:18:13;2.72;;;1.77;;
75787;SDS011;64406;50.024;14.492;2023-04-15T11:23:58;2.55;;;1.75;;
75787;SDS011;64406;50.024;14.492;2023-04-15T11:26:08;1.90;;;1.55;;
75787;SDS011;64406;50.024;14.492;2023-04-15T11:28:37;1.90;;;1.70;;
75787;SDS011;64406;50.024;14.492;2023-04-15T11:31:15;2.30;;;1.80;;
75787;SDS011;64406;50.024;14.492;2023-04-15T11:33:55;2.17;;;1.60;;
75787;SDS011;64406;50.024;14.492;2023-04-15T11:36:23;2.88;;;1.40;;
75787;SDS011;64406;50.024;14.492;2023-04-15T11:38:51;2.25;;;1.80;;
75787;SDS011;64406;50.024;14.492;2023-04-15T11:41:20;2.50;;;1.67;;
75787;SDS011;64406;50.024;14.492;2023-04-15T11:43:48;2.78;;;1.92;;
75787;SDS011;64406;50.024;14.492;2023-04-15T11:46:14;2.28;;;1.83;;
75787;SDS011;64406;50.024;14.492;2023-04-15T11:48:43;3.15;;;2.15;;
75787;SDS011;64406;50.024;14.492;2023-04-15T11:51:11;2.08;;;1.50;;
75787;SDS011;64406;50.024;14.492;2023-04-15T11:56:17;3.08;;;1.63;;
75787;SDS011;64406;50.024;14.492;2023-04-15T11:58:47;1.83;;;1.40;;
75787;SDS011;64406;50.024;14.492;2023-04-15T12:01:16;2.70;;;1.75;;
75787;SDS011;64406;50.024;14.492;2023-04-15T12:03:43;2.53;;;2.00;;
75787;SDS011;64406;50.024;14.492;2023-04-15T12:06:15;2.47;;;1.88;;
75787;SDS011;64406;50.024;14.492;2023-04-15T12:11:16;2.17;;;1.65;;
75787;SDS011;64406;50.024;14.492;2023-04-15T12:13:45;2.35;;;1.60;;
75787;SDS011;64406;50.024;14.492;2023-04-15T12:16:12;2.97;;;1.65;;
75787;SDS011;64406;50.024;14.492;2023-04-15T12:18:41;2.25;;;1.33;;
75787;SDS011;64406;50.024;14.492;2023-04-15T12:21:09;5.80;;;1.50;;
75787;SDS011;64406;50.024;14.492;2023-04-15T12:23:36;2.20;;;1.40;;
75787;SDS011;64406;50.024;14.492;2023-04-15T12:26:06;1.77;;;1.45;;
75787;SDS011;64406;50.024;14.492;2023-04-15T12:28:35;3.08;;;1.85;;
75787;SDS011;64406;50.024;14.492;2023-04-15T12:31:10;1.48;;;1.30;;
75787;SDS011;64406;50.024;14.492;2023-04-15T12:33:37;2.58;;;1.48;;
75787;SDS011;64406;50.024;14.492;2023-04-15T12:36:03;1.92;;;1.15;;
75787;SDS011;64406;50.024;14.492;2023-04-15T12:38:30;2.10;;;1.52;;
75787;SDS011;64406;50.024;14.492;2023-04-15T12:40:56;2.20;;;1.73;;
75787;SDS011;64406;50.024;14.492;2023-04-15T12:43:23;2.53;;;1.67;;
75787;SDS011;64406;50.024;14.492;2023-04-15T12:45:49;2.38;;;1.50;;
75787;SDS011;64406;50.024;14.492;2023-04-15T12:48:15;2.10;;;1.45;;
75787;SDS011;64406;50.024;14.492;2023-04-15T12:50:40;2.50;;;1.95;;
75787;SDS011;64406;50.024;14.492;2023-04-15T12:53:06;2.38;;;1.88;;
75787;SDS011;64406;50.024;14.492;2023-04-15T12:55:32;2.10;;;1.83;;
75787;SDS011;64406;50.024;14.492;2023-04-15T12:57:57;2.65;;;1.50;;
75787;SDS011;64406;50.024;14.492;2023-04-15T13:00:23;2.00;;;1.65;;
75787;SDS011;64406;50.024;14.492;2023-04-15T13:02:49;2.38;;;1.52;;
75787;SDS011;64406;50.024;14.492;2023-04-15T13:05:14;3.30;;;1.85;;
75787;SDS011;64406;50.024;14.492;2023-04-15T13:07:40;1.95;;;1.40;;
75787;SDS011;64406;50.024;14.492;2023-04-15T13:10:06;1.73;;;1.63;;
75787;SDS011;64406;50.024;14.492;2023-04-15T13:12:32;1.65;;;1.38;;
75787;SDS011;64406;50.024;14.492;2023-04-15T13:15:01;2.03;;;1.45;;
75787;SDS011;64406;50.024;14.492;2023-04-15T13:17:28;2.42;;;1.55;;
75787;SDS011;64406;50.024;14.492;2023-04-15T13:19:53;1.48;;;1.35;;
75787;SDS011;64406;50.024;14.492;2023-04-15T13:22:19;1.73;;;1.58;;
75787;SDS011;64406;50.024;14.492;2023-04-15T13:24:45;2.08;;;1.30;;
75787;SDS011;64406;50.024;14.492;2023-04-15T13:27:11;1.88;;;1.52;;
75787;SDS011;64406;50.024;14.492;2023-04-15T13:29:37;2.00;;;1.58;;
75787;SDS011;64406;50.024;14.492;2023-04-15T13:32:04;2.42;;;1.55;;
75787;SDS011;64406;50.024;14.492;2023-04-15T13:34:30;2.53;;;1.67;;
75787;SDS011;64406;50.024;14.492;2023-04-15T13:36:56;1.98;;;1.38;;
75787;SDS011;64406;50.024;14.492;2023-04-15T13:39:21;1.88;;;1.60;;
75787;SDS011;64406;50.024;14.492;2023-04-15T13:41:47;2.22;;;1.40;;
75787;SDS011;64406;50.024;14.492;2023-04-15T13:44:13;2.17;;;1.63;;
75787;SDS011;64406;50.024;14.492;2023-04-15T13:46:39;2.67;;;1.48;;
75787;SDS011;64406;50.024;14.492;2023-04-15T13:49:06;2.53;;;1.85;;
75787;SDS011;64406;50.024;14.492;2023-04-15T13:51:32;1.50;;;1.40;;
75787;SDS011;64406;50.024;14.492;2023-04-15T13:54:00;1.77;;;1.38;;
75787;SDS011;64406;50.024;14.492;2023-04-15T13:56:25;2.03;;;1.45;;
75787;SDS011;64406;50.024;14.492;2023-04-15T13:58:51;2.00;;;1.50;;
75787;SDS011;64406;50.024;14.492;2023-04-15T14:01:17;1.55;;;1.20;;
75787;SDS011;64406;50.024;14.492;2023-04-15T14:03:42;2.10;;;1.33;;
75787;SDS011;64406;50.024;14.492;2023-04-15T14:06:08;1.20;;;1.10;;
75787;SDS011;64406;50.024;14.492;2023-04-15T14:08:33;2.17;;;1.48;;
75787;SDS011;64406;50.024;14.492;2023-04-15T14:10:59;2.00;;;1.60;;
75787;SDS011;64406;50.024;14.492;2023-04-15T14:13:25;2.75;;;1.30;;
75787;SDS011;64406;50.024;14.492;2023-04-15T14:15:50;1.50;;;1.40;;
75787;SDS011;64406;50.024;14.492;2023-04-15T14:18:16;1.95;;;1.52;;
75787;SDS011;64406;50.024;14.492;2023-04-15T14:20:42;1.70;;;1.20;;
75787;SDS011;64406;50.024;14.492;2023-04-15T14:23:07;2.08;;;1.45;;
75787;SDS011;64406;50.024;14.492;2023-04-15T14:25:33;1.65;;;1.20;;
75787;SDS011;64406;50.024;14.492;2023-04-15T14:27:58;1.80;;;1.40;;
75787;SDS011;64406;50.024;14.492;2023-04-15T14:30:24;1.35;;;1.17;;
75787;SDS011;64406;50.024;14.492;2023-04-15T14:32:50;1.98;;;1.30;;
75787;SDS011;64406;50.024;14.492;2023-04-15T14:35:16;2.00;;;1.10;;
75787;SDS011;64406;50.024;14.492;2023-04-15T14:37:41;1.75;;;1.20;;
75787;SDS011;64406;50.024;14.492;2023-04-15T14:40:07;1.90;;;1.15;;
75787;SDS011;64406;50.024;14.492;2023-04-15T14:42:33;1.40;;;0.98;;
75787;SDS011;64406;50.024;14.492;2023-04-15T14:44:59;2.15;;;1.20;;
75787;SDS011;64406;50.024;14.492;2023-04-15T14:47:24;1.70;;;1.27;;
75787;SDS011;64406;50.024;14.492;2023-04-15T14:49:50;1.30;;;1.20;;
75787;SDS011;64406;50.024;14.492;2023-04-15T14:52:15;1.83;;;1.02;;
75787;SDS011;64406;50.024;14.492;2023-04-15T14:54:41;1.30;;;1.20;;
75787;SDS011;64406;50.024;14.492;2023-04-15T14:57:07;1.65;;;1.27;;